createdAt,value
2022-10-25T00:01:47.249Z,15.73
2022-10-25T00:04:37.613Z,18.67
2022-10-25T00:07:26.997Z,19.50
2022-10-25T00:10:15.711Z,18.88
2022-10-25T00:13:05.426Z,20.52
2022-10-25T00:15:54.042Z,17.92
2022-10-25T00:18:42.811Z,16.30
2022-10-25T00:21:33.909Z,17.27
2022-10-25T00:24:23.203Z,16.27
2022-10-25T00:27:12.267Z,12.60
2022-10-25T00:30:03.505Z,19.23
2022-10-25T00:32:53.639Z,23.90
2022-10-25T00:35:42.908Z,19.67
2022-10-25T00:38:33.969Z,18.30
2022-10-25T00:41:25.866Z,13.60
2022-10-25T00:44:51.987Z,21.10
2022-10-25T00:47:49.858Z,18.17
2022-10-25T00:50:47.995Z,16.23
2022-10-25T00:53:39.410Z,21.92
2022-10-25T00:56:32.034Z,19.98
2022-10-25T00:59:24.808Z,18.17
2022-10-25T01:02:14.728Z,14.75
2022-10-25T01:05:04.708Z,17.05
2022-10-25T01:07:53.949Z,15.98
2022-10-25T01:10:45.282Z,16.80
2022-10-25T01:13:34.357Z,14.65
2022-10-25T01:16:29.775Z,16.20
2022-10-25T01:19:39.705Z,15.98
2022-10-25T01:22:32.602Z,15.15
2022-10-25T01:26:03.993Z,18.98
2022-10-25T01:29:15.894Z,20.60
2022-10-25T01:32:12.617Z,19.77
2022-10-25T01:35:09.084Z,14.80
2022-10-25T01:38:18.623Z,14.18
2022-10-25T01:41:18.661Z,16.00
2022-10-25T01:44:19.930Z,21.35
2022-10-25T01:47:14.775Z,26.23
2022-10-25T01:50:06.422Z,21.13
2022-10-25T01:52:55.955Z,24.98
2022-10-25T01:55:51.299Z,24.30
2022-10-25T01:58:47.266Z,28.83
2022-10-25T02:04:44.192Z,19.17
2022-10-25T02:07:39.693Z,23.27
2022-10-25T02:10:34.704Z,15.15
2022-10-25T02:13:28.508Z,22.23
2022-10-25T02:16:23.715Z,21.48
2022-10-25T02:19:17.094Z,23.50
2022-10-25T02:22:09.882Z,24.45
2022-10-25T02:25:00.825Z,23.83
2022-10-25T02:27:52.343Z,22.83
2022-10-25T02:30:42.417Z,22.85
2022-10-25T02:33:31.457Z,21.45
2022-10-25T02:36:22.715Z,21.83
2022-10-25T02:39:13.804Z,35.60
2022-10-25T02:42:03.131Z,26.27
2022-10-25T02:44:52.896Z,28.83
2022-10-25T02:47:42.341Z,27.98
2022-10-25T02:50:31.684Z,25.65
2022-10-25T02:53:20.692Z,26.48
2022-10-25T02:56:14.126Z,28.63
2022-10-25T02:59:02.919Z,27.58
2022-10-25T03:01:52.667Z,21.70
2022-10-25T03:04:42.312Z,27.35
2022-10-25T03:07:31.731Z,25.25
2022-10-25T03:10:20.926Z,23.90
2022-10-25T03:13:11.245Z,27.92
2022-10-25T03:16:00.127Z,28.10
2022-10-25T03:18:49.774Z,29.05
2022-10-25T03:21:41.284Z,29.10
2022-10-25T03:24:31.016Z,27.95
2022-10-25T03:27:20.116Z,25.83
2022-10-25T03:30:13.917Z,28.00
2022-10-25T03:33:03.176Z,31.20
2022-10-25T03:35:52.849Z,28.77
2022-10-25T03:38:42.553Z,31.52
2022-10-25T03:41:31.206Z,25.35
2022-10-25T03:44:20.501Z,25.23
2022-10-25T03:47:11.361Z,29.38
2022-10-25T03:50:00.936Z,33.53
2022-10-25T03:52:50.587Z,29.58
2022-10-25T03:55:40.000Z,33.33
2022-10-25T03:58:29.031Z,29.85
2022-10-25T04:01:18.386Z,35.47
2022-10-25T04:04:09.379Z,32.60
2022-10-25T04:06:59.308Z,33.42
2022-10-25T04:09:48.985Z,31.98
2022-10-25T04:12:38.481Z,37.75
2022-10-25T04:15:27.681Z,34.38
2022-10-25T04:18:16.919Z,34.95
2022-10-25T04:21:07.942Z,28.55
2022-10-25T04:23:59.312Z,31.00
2022-10-25T04:26:50.992Z,28.98
2022-10-25T04:29:40.278Z,38.53
2022-10-25T04:32:29.822Z,33.92
2022-10-25T04:35:19.255Z,34.65
2022-10-25T04:38:10.275Z,27.33
2022-10-25T04:41:01.177Z,34.83
2022-10-25T04:43:52.630Z,34.67
2022-10-25T04:46:45.069Z,34.75
2022-10-25T04:49:37.532Z,32.30
2022-10-25T04:52:26.629Z,34.92
2022-10-25T04:55:16.910Z,36.83
2022-10-25T04:58:06.012Z,35.78
2022-10-25T05:00:56.553Z,45.05
2022-10-25T05:03:45.253Z,41.03
2022-10-25T05:06:33.966Z,30.08
2022-10-25T05:09:22.730Z,36.25
2022-10-25T05:12:12.966Z,40.33
2022-10-25T05:15:01.470Z,34.30
2022-10-25T05:17:50.221Z,35.00
2022-10-25T05:20:38.776Z,40.53
2022-10-25T05:23:29.619Z,37.45
2022-10-25T05:26:20.413Z,36.53
2022-10-25T05:29:14.614Z,38.22
2022-10-25T05:32:03.834Z,29.30
2022-10-25T05:34:53.399Z,37.33
2022-10-25T05:37:42.499Z,40.75
2022-10-25T05:40:32.146Z,36.63
2022-10-25T05:43:21.461Z,35.80
2022-10-25T05:46:14.517Z,35.88
2022-10-25T05:49:03.236Z,36.63
2022-10-25T05:51:51.936Z,43.10
2022-10-25T05:54:41.009Z,44.20
2022-10-25T05:57:31.253Z,47.20
2022-10-25T06:00:20.159Z,45.35
2022-10-25T06:03:10.965Z,42.58
2022-10-25T06:06:03.008Z,40.33
2022-10-25T06:08:57.018Z,41.42
2022-10-25T06:11:46.137Z,44.10
2022-10-25T06:14:35.211Z,42.95
2022-10-25T06:17:24.467Z,39.80
2022-10-25T06:20:15.292Z,39.72
2022-10-25T06:23:07.996Z,41.10
2022-10-25T06:26:02.546Z,39.53
2022-10-25T06:28:56.166Z,40.58
2022-10-25T06:31:45.368Z,37.00
2022-10-25T06:34:34.412Z,45.45
2022-10-25T06:37:24.823Z,48.28
2022-10-25T06:40:14.029Z,41.00
2022-10-25T06:43:03.704Z,44.83
2022-10-25T06:45:53.300Z,47.85
2022-10-25T06:48:42.362Z,42.15
2022-10-25T06:51:32.882Z,43.65
2022-10-25T06:54:25.813Z,49.60
2022-10-25T06:57:14.608Z,40.53
2022-10-25T07:00:03.896Z,42.38
2022-10-25T07:02:56.688Z,43.72
2022-10-25T07:05:45.856Z,47.75
2022-10-25T07:08:35.023Z,40.58
2022-10-25T07:11:27.061Z,52.63
2022-10-25T07:14:16.183Z,49.17
2022-10-25T07:17:05.218Z,51.55
2022-10-25T07:19:54.190Z,45.95
2022-10-25T07:22:42.744Z,53.35
2022-10-25T07:25:32.107Z,50.67
2022-10-25T07:28:22.836Z,55.17
2022-10-25T07:31:14.625Z,53.50
2022-10-25T07:34:05.446Z,49.35
2022-10-25T07:36:55.008Z,63.22
2022-10-25T07:39:44.379Z,60.53
2022-10-25T07:42:33.711Z,68.80
2022-10-25T07:45:26.414Z,63.45
2022-10-25T07:48:16.787Z,73.18
2022-10-25T07:51:06.985Z,60.22
2022-10-25T07:53:56.562Z,60.22
2022-10-25T07:56:45.500Z,61.60
2022-10-25T07:59:34.757Z,69.25
2022-10-25T08:02:27.244Z,62.55
2022-10-25T08:05:16.565Z,60.30
2022-10-25T08:08:06.127Z,57.95
2022-10-25T08:10:56.214Z,56.60
2022-10-25T08:13:45.360Z,54.60
2022-10-25T08:16:34.821Z,42.00
2022-10-25T08:19:25.209Z,46.58
2022-10-25T08:22:14.274Z,37.47
2022-10-25T08:25:04.746Z,42.50
2022-10-25T08:27:53.913Z,46.05
2022-10-25T08:30:42.810Z,42.97
2022-10-25T08:33:32.178Z,40.20
2022-10-25T08:36:24.189Z,32.92
2022-10-25T08:39:13.256Z,36.97
2022-10-25T08:42:03.891Z,31.83
2022-10-25T08:44:58.059Z,32.20
2022-10-25T08:47:49.487Z,34.88
2022-10-25T08:50:43.922Z,28.17
2022-10-25T08:53:39.558Z,30.70
2022-10-25T08:56:30.356Z,33.42
2022-10-25T08:59:28.165Z,29.98
2022-10-25T09:02:25.175Z,29.65
2022-10-25T09:05:18.812Z,30.90
2022-10-25T09:08:26.432Z,31.95
2022-10-25T09:11:28.528Z,33.30
2022-10-25T09:14:22.787Z,32.65
2022-10-25T09:17:15.601Z,28.17
2022-10-25T09:20:08.715Z,33.80
2022-10-25T09:23:02.083Z,44.72
2022-10-25T09:25:57.845Z,36.03
2022-10-25T09:28:55.580Z,30.95
2022-10-25T09:31:48.938Z,35.17
2022-10-25T09:34:38.877Z,33.95
2022-10-25T09:37:31.694Z,33.22
2022-10-25T09:40:24.920Z,34.40
2022-10-25T09:43:17.529Z,33.00
2022-10-25T09:46:09.206Z,31.63
2022-10-25T09:49:01.038Z,29.67
2022-10-25T09:51:53.198Z,35.95
2022-10-25T09:54:47.897Z,33.72
2022-10-25T09:57:36.978Z,30.52
2022-10-25T10:00:26.075Z,31.58
2022-10-25T10:03:17.047Z,29.98
2022-10-25T10:06:14.286Z,24.88
2022-10-25T10:09:08.078Z,30.25
2022-10-25T10:12:00.442Z,25.70
2022-10-25T10:14:52.532Z,24.60
2022-10-25T10:17:41.914Z,23.35
2022-10-25T10:20:32.340Z,25.58
2022-10-25T10:23:21.592Z,29.40
2022-10-25T10:26:15.906Z,23.70
2022-10-25T10:29:16.679Z,22.67
2022-10-25T10:32:08.808Z,19.83
2022-10-25T10:34:59.798Z,18.92
2022-10-25T10:37:50.398Z,20.75
2022-10-25T10:40:39.308Z,22.17
2022-10-25T10:43:32.005Z,20.08
2022-10-25T10:46:24.807Z,21.30
2022-10-25T10:49:15.524Z,22.90
2022-10-25T10:52:05.749Z,17.83
2022-10-25T10:54:57.338Z,22.67
2022-10-25T10:57:46.638Z,19.85
2022-10-25T11:00:36.988Z,20.20
2022-10-25T11:03:45.157Z,18.60
2022-10-25T11:06:44.211Z,21.52
2022-10-25T11:09:33.512Z,25.05
2022-10-25T11:12:24.119Z,19.45
2022-10-25T11:15:13.777Z,21.70
2022-10-25T11:18:05.960Z,18.65
2022-10-25T11:21:00.402Z,20.23
2022-10-25T11:23:56.318Z,17.17
2022-10-25T11:26:55.340Z,17.65
2022-10-25T11:30:07.578Z,22.20
2022-10-25T11:33:22.127Z,15.57
2022-10-25T11:36:26.153Z,21.23
2022-10-25T11:39:28.927Z,17.55
2022-10-25T11:42:25.813Z,14.68
2022-10-25T11:45:27.677Z,17.67
2022-10-25T11:48:46.820Z,19.00
2022-10-25T11:51:43.901Z,15.98
2022-10-25T11:54:40.257Z,20.90
2022-10-25T11:57:40.537Z,13.80
2022-10-25T12:00:41.372Z,14.75
2022-10-25T12:03:49.905Z,14.77
2022-10-25T12:06:46.038Z,14.20
2022-10-25T12:09:44.085Z,21.33
2022-10-25T12:12:42.837Z,17.27
2022-10-25T12:15:38.870Z,15.43
2022-10-25T12:18:33.750Z,11.18
2022-10-25T12:21:27.624Z,16.05
2022-10-25T12:24:23.001Z,17.95
2022-10-25T12:27:13.558Z,12.98
2022-10-25T12:30:04.402Z,9.75
2022-10-25T12:33:01.473Z,14.88
2022-10-25T12:35:53.693Z,11.23
2022-10-25T12:38:43.160Z,8.30
2022-10-25T12:41:36.916Z,9.77
2022-10-25T12:44:42.265Z,7.20
2022-10-25T12:47:50.947Z,10.63
2022-10-25T12:50:58.980Z,10.43
2022-10-25T12:54:17.198Z,9.00
2022-10-25T12:57:17.806Z,9.68
2022-10-25T13:00:12.522Z,8.93
2022-10-25T13:03:33.965Z,6.90
2022-10-25T13:06:34.623Z,7.10
2022-10-25T13:09:27.293Z,6.28
2022-10-25T13:12:26.746Z,6.90
2022-10-25T13:15:20.787Z,6.45
2022-10-25T13:18:28.635Z,7.22
2022-10-25T13:21:19.205Z,7.53
2022-10-25T13:24:12.124Z,6.57
2022-10-25T13:27:20.791Z,4.05
2022-10-25T13:30:28.316Z,4.82
2022-10-25T13:33:33.678Z,4.05
2022-10-25T13:36:49.504Z,5.82
2022-10-25T13:39:45.361Z,8.30
2022-10-25T13:42:35.435Z,7.60
2022-10-25T13:45:34.435Z,6.18
2022-10-25T13:48:31.391Z,6.55
2022-10-25T13:51:22.803Z,8.10
2022-10-25T13:54:13.316Z,5.95
2022-10-25T13:57:03.372Z,7.60
2022-10-25T14:00:03.061Z,5.30
2022-10-25T14:03:34.896Z,4.60
2022-10-25T14:06:26.982Z,5.88
2022-10-25T14:09:24.997Z,5.43
2022-10-25T14:12:20.244Z,3.80
2022-10-25T14:15:14.884Z,5.55
2022-10-25T14:18:10.171Z,10.52
2022-10-25T14:21:05.648Z,4.45
2022-10-25T14:23:54.637Z,9.43
2022-10-25T14:26:52.485Z,7.28
2022-10-25T14:29:44.285Z,6.15
2022-10-25T14:32:33.254Z,6.45
2022-10-25T14:35:23.157Z,8.23
2022-10-25T14:38:18.231Z,5.88
2022-10-25T14:41:14.153Z,7.70
2022-10-25T14:44:03.817Z,5.32
2022-10-25T14:46:55.353Z,6.97
2022-10-25T14:49:44.450Z,9.05
2022-10-25T14:52:34.003Z,7.18
2022-10-25T14:55:28.629Z,8.48
2022-10-25T14:58:17.623Z,3.97
2022-10-25T15:01:06.957Z,5.82
2022-10-25T15:03:59.281Z,8.95
2022-10-25T15:06:50.636Z,8.73
2022-10-25T15:09:50.393Z,5.75
2022-10-25T15:12:39.901Z,6.95
2022-10-25T15:15:35.278Z,6.85
2022-10-25T15:18:31.651Z,6.25
2022-10-25T15:21:21.732Z,6.40
2022-10-25T15:24:16.223Z,6.55
2022-10-25T15:27:07.102Z,13.18
2022-10-25T15:29:56.592Z,6.63
2022-10-25T15:32:46.222Z,5.28
2022-10-25T15:35:41.182Z,5.78
2022-10-25T15:38:54.226Z,7.88
2022-10-25T15:41:43.652Z,5.75
2022-10-25T15:44:32.667Z,6.50
2022-10-25T15:47:33.986Z,8.38
2022-10-25T15:50:23.215Z,8.77
2022-10-25T15:53:13.059Z,7.38
2022-10-25T15:56:04.431Z,7.95
2022-10-25T15:58:53.364Z,7.38
2022-10-25T16:01:45.174Z,8.55
2022-10-25T16:04:34.023Z,5.95
2022-10-25T16:07:24.506Z,6.70
2022-10-25T16:10:13.669Z,11.63
2022-10-25T16:13:08.222Z,7.80
2022-10-25T16:15:57.190Z,4.95
2022-10-25T16:18:46.590Z,6.18
2022-10-25T16:21:36.036Z,7.20
2022-10-25T16:24:25.309Z,7.70
2022-10-25T16:27:14.789Z,7.40
2022-10-25T16:30:06.049Z,8.93
2022-10-25T16:32:55.092Z,8.95
2022-10-25T16:35:44.656Z,10.30
2022-10-25T16:38:33.770Z,8.15
2022-10-25T16:41:25.414Z,7.13
2022-10-25T16:44:17.503Z,9.65
2022-10-25T16:47:07.902Z,5.60
2022-10-25T16:49:57.275Z,7.28
2022-10-25T16:52:46.385Z,7.40
2022-10-25T16:55:35.902Z,8.45
2022-10-25T16:58:25.385Z,10.05
2022-10-25T17:01:22.213Z,10.40
2022-10-25T17:04:19.221Z,7.15
2022-10-25T17:07:08.568Z,7.13
2022-10-25T17:09:58.170Z,6.55
2022-10-25T17:12:48.060Z,8.00
2022-10-25T17:15:38.640Z,7.30
2022-10-25T17:18:28.374Z,7.47
2022-10-25T17:21:19.829Z,9.00
2022-10-25T17:24:10.019Z,7.03
2022-10-25T17:26:59.562Z,6.18
2022-10-25T17:29:49.074Z,8.57
2022-10-25T17:32:39.039Z,6.60
2022-10-25T17:35:30.117Z,7.90
2022-10-25T17:38:20.642Z,11.07
2022-10-25T17:41:09.915Z,5.05
2022-10-25T17:43:59.633Z,7.45
2022-10-25T17:46:49.028Z,7.60
2022-10-25T17:49:38.070Z,6.97
2022-10-25T17:52:27.307Z,5.40
2022-10-25T17:55:17.397Z,9.55
2022-10-25T17:58:06.462Z,7.85
2022-10-25T18:00:55.939Z,11.75
2022-10-25T18:03:45.308Z,7.68
2022-10-25T18:06:34.953Z,6.38
2022-10-25T18:09:24.251Z,5.88
2022-10-25T18:12:14.747Z,10.05
2022-10-25T18:15:03.928Z,12.07
2022-10-25T18:17:52.945Z,7.85
2022-10-25T18:20:42.145Z,8.65
2022-10-25T18:23:32.050Z,10.25
2022-10-25T18:26:21.046Z,7.47
2022-10-25T18:29:11.741Z,10.57
2022-10-25T18:32:01.337Z,10.25
2022-10-25T18:34:50.428Z,12.25
2022-10-25T18:37:39.802Z,10.73
2022-10-25T18:40:29.308Z,15.50
2022-10-25T18:43:17.910Z,13.93
2022-10-25T18:46:08.804Z,15.23
2022-10-25T18:48:58.382Z,13.27
2022-10-25T18:51:47.709Z,13.38
2022-10-25T18:54:37.066Z,19.85
2022-10-25T18:57:26.357Z,13.35
2022-10-25T19:00:17.308Z,12.18
2022-10-25T19:03:09.081Z,14.50
2022-10-25T19:05:58.033Z,11.30
2022-10-25T19:08:49.339Z,10.55
2022-10-25T19:11:38.193Z,17.33
2022-10-25T19:14:27.947Z,13.60
2022-10-25T19:17:17.275Z,20.05
2022-10-25T19:20:09.227Z,11.90
2022-10-25T19:22:58.985Z,12.38
2022-10-25T19:25:48.465Z,21.42
2022-10-25T19:28:38.140Z,14.35
2022-10-25T19:31:28.805Z,16.60
2022-10-25T19:34:18.126Z,12.85
2022-10-25T19:37:10.444Z,17.27
2022-10-25T19:39:59.528Z,17.88
2022-10-25T19:42:49.249Z,15.88
2022-10-25T19:45:43.078Z,16.02
2022-10-25T19:48:32.835Z,14.75
2022-10-25T19:51:22.243Z,21.38
2022-10-25T19:54:12.216Z,18.27
2022-10-25T19:57:02.481Z,18.95
2022-10-25T19:59:51.698Z,17.10
2022-10-25T20:02:41.032Z,15.20
2022-10-25T20:05:30.534Z,17.20
2022-10-25T20:08:19.595Z,16.40
2022-10-25T20:11:11.821Z,15.38
2022-10-25T20:14:02.208Z,18.48
2022-10-25T20:16:51.778Z,15.65
2022-10-25T20:19:41.380Z,14.35
2022-10-25T20:22:30.947Z,22.13
2022-10-25T20:25:20.179Z,18.48
2022-10-25T20:28:10.847Z,19.67
2022-10-25T20:31:04.474Z,22.15
2022-10-25T20:33:54.210Z,17.70
2022-10-25T20:36:43.353Z,18.05
2022-10-25T20:39:32.173Z,19.77
2022-10-25T20:42:21.471Z,15.57
2022-10-25T20:45:11.857Z,20.73
2022-10-25T20:48:01.729Z,16.52
2022-10-25T20:51:14.656Z,16.55
2022-10-25T20:54:09.749Z,23.60
2022-10-25T20:56:59.513Z,17.20
2022-10-25T20:59:49.452Z,19.13
2022-10-25T21:02:40.157Z,17.65
2022-10-25T21:05:29.775Z,18.05
2022-10-25T21:08:18.616Z,20.48
2022-10-25T21:11:09.545Z,16.88
2022-10-25T21:13:58.905Z,19.00
2022-10-25T21:16:47.857Z,17.80
2022-10-25T21:19:38.448Z,22.40
2022-10-25T21:22:27.745Z,29.50
2022-10-25T21:25:17.523Z,22.50
2022-10-25T21:28:07.424Z,22.13
2022-10-25T21:30:56.715Z,22.50
2022-10-25T21:33:50.069Z,24.60
2022-10-25T21:36:41.282Z,22.30
2022-10-25T21:39:30.296Z,28.38
2022-10-25T21:42:19.455Z,24.05
2022-10-25T21:45:09.926Z,25.05
2022-10-25T21:47:59.083Z,29.48
2022-10-25T21:50:55.538Z,24.58
2022-10-25T21:53:45.829Z,25.50
2022-10-25T21:56:34.763Z,22.80
2022-10-25T21:59:24.552Z,22.88
2022-10-25T22:02:14.072Z,31.63
2022-10-25T22:05:03.341Z,29.40
2022-10-25T22:07:52.261Z,22.63
2022-10-25T22:10:42.606Z,21.83
2022-10-25T22:13:31.938Z,24.02
2022-10-25T22:16:22.109Z,18.20
2022-10-25T22:19:16.700Z,21.92
2022-10-25T22:22:06.371Z,29.27
2022-10-25T22:24:55.766Z,22.00
2022-10-25T22:27:46.081Z,22.73
2022-10-25T22:30:35.703Z,18.88
2022-10-25T22:33:24.889Z,24.23
2022-10-25T22:36:16.173Z,22.42
2022-10-25T22:39:06.522Z,26.02
2022-10-25T22:41:56.178Z,23.83
2022-10-25T22:44:46.619Z,22.98
2022-10-25T22:47:35.760Z,23.70
2022-10-25T22:50:24.853Z,20.77
2022-10-25T22:53:14.205Z,23.63
2022-10-25T22:56:05.146Z,23.80
2022-10-25T22:58:56.410Z,27.70
2022-10-25T23:01:47.592Z,22.48
2022-10-25T23:04:37.111Z,19.80
2022-10-25T23:07:25.970Z,24.65
2022-10-25T23:10:15.261Z,21.50
2022-10-25T23:13:04.570Z,22.13
2022-10-25T23:15:53.446Z,20.15
2022-10-25T23:18:44.740Z,23.75
2022-10-25T23:21:33.845Z,22.80
2022-10-25T23:24:22.942Z,17.67
2022-10-25T23:27:12.191Z,19.40
2022-10-25T23:30:01.373Z,20.65
2022-10-25T23:32:50.987Z,19.17
2022-10-25T23:35:42.446Z,20.77
2022-10-25T23:38:31.358Z,20.20
2022-10-25T23:41:21.828Z,21.92
2022-10-25T23:44:11.028Z,22.52
2022-10-25T23:47:00.454Z,20.20
2022-10-25T23:49:49.542Z,20.80
2022-10-25T23:52:40.214Z,16.55
2022-10-25T23:55:29.726Z,19.30
2022-10-25T23:58:19.727Z,22.02
